createdAt,value
2018-09-13T00:04:08.219Z,100648.03
2018-09-13T00:09:11.703Z,100646.91
2018-09-13T00:14:15.171Z,100653.67
2018-09-13T00:19:18.677Z,100645.80
2018-09-13T00:24:22.222Z,100643.94
2018-09-13T00:29:25.684Z,100634.95
2018-09-13T00:34:29.196Z,100634.57
2018-09-13T00:39:32.682Z,100630.00
2018-09-13T00:44:36.145Z,100625.80
2018-09-13T00:49:39.639Z,100623.45
2018-09-13T00:54:43.158Z,100629.20
2018-09-13T00:59:46.627Z,100623.68
2018-09-13T01:04:50.091Z,100616.77
2018-09-13T01:09:54.232Z,100612.44
2018-09-13T01:14:57.672Z,100611.34
2018-09-13T01:20:01.150Z,100613.28
2018-09-13T01:25:05.085Z,100613.53
2018-09-13T01:30:08.590Z,100606.89
2018-09-13T01:35:12.060Z,100601.08
2018-09-13T01:40:15.525Z,100594.05
2018-09-13T01:45:18.988Z,100590.20
2018-09-13T01:50:22.505Z,100592.05
2018-09-13T01:55:26.157Z,100577.80
2018-09-13T02:00:29.618Z,100580.99
2018-09-13T02:05:33.093Z,100573.86
2018-09-13T02:10:36.696Z,100575.56
2018-09-13T02:15:40.178Z,100576.55
2018-09-13T02:20:43.756Z,100577.91
2018-09-13T02:25:47.264Z,100593.85
2018-09-13T02:30:50.753Z,100584.88
2018-09-13T02:35:54.236Z,100585.87
2018-09-13T02:40:57.729Z,100577.38
2018-09-13T02:46:01.218Z,100577.02
2018-09-13T02:51:04.695Z,100574.41
2018-09-13T02:56:08.164Z,100584.86
2018-09-13T03:01:11.619Z,100582.28
2018-09-13T03:06:15.121Z,100572.45
2018-09-13T03:11:18.595Z,100586.06
2018-09-13T03:16:22.047Z,100569.10
2018-09-13T03:21:25.528Z,100564.55
2018-09-13T03:26:28.998Z,100570.58
2018-09-13T03:31:32.480Z,100573.41
2018-09-13T03:36:35.948Z,100566.86
2018-09-13T03:41:39.513Z,100552.48
2018-09-13T03:46:42.989Z,100545.11
2018-09-13T03:51:46.468Z,100540.06
2018-09-13T03:56:49.902Z,100540.70
2018-09-13T04:01:53.374Z,100540.44
2018-09-13T04:06:56.815Z,100542.28
2018-09-13T04:12:00.233Z,100546.19
2018-09-13T04:17:03.679Z,100544.47
2018-09-13T04:22:07.127Z,100530.68
2018-09-13T04:27:10.913Z,100544.33
2018-09-13T04:32:14.366Z,100543.95
2018-09-13T04:37:17.816Z,100538.42
2018-09-13T04:42:21.264Z,100534.12
2018-09-13T04:47:24.698Z,100542.45
2018-09-13T04:52:28.179Z,100547.61
2018-09-13T04:57:31.620Z,100547.61
2018-09-13T05:02:35.072Z,100557.94
2018-09-13T05:07:38.529Z,100559.28
2018-09-13T05:12:41.981Z,100570.68
2018-09-13T05:17:45.420Z,100582.97
2018-09-13T05:22:48.892Z,100574.00
2018-09-13T05:27:52.308Z,100565.03
2018-09-13T05:32:55.770Z,100566.10
2018-09-13T05:37:59.199Z,100561.80
2018-09-13T05:43:02.705Z,100556.64
2018-09-13T05:48:06.124Z,100561.09
2018-09-13T05:53:09.576Z,100562.54
2018-09-13T05:58:13.023Z,100556.40
2018-09-13T06:03:16.463Z,100564.62
2018-09-13T06:08:19.894Z,100564.50
2018-09-13T06:13:23.412Z,100566.06
2018-09-13T06:18:26.829Z,100563.00
2018-09-13T06:23:30.424Z,100562.02
2018-09-13T06:28:33.896Z,100557.25
2018-09-13T06:33:37.387Z,100553.54
2018-09-13T06:38:40.832Z,100558.58
2018-09-13T06:43:44.277Z,100553.81
2018-09-13T06:48:47.749Z,100541.66
2018-09-13T06:53:51.202Z,100533.13
2018-09-13T06:58:54.695Z,100525.61
2018-09-13T07:03:58.164Z,100536.98
2018-09-13T07:09:01.615Z,100541.03
2018-09-13T07:14:05.065Z,100537.79
2018-09-13T07:19:08.587Z,100543.39
2018-09-13T07:24:12.080Z,100544.30
2018-09-13T07:29:15.527Z,100535.05
2018-09-13T07:34:18.947Z,100540.89
2018-09-13T07:39:22.412Z,100539.05
2018-09-13T07:44:25.882Z,100531.14
2018-09-13T07:49:29.365Z,100532.42
2018-09-13T07:54:33.074Z,100527.07
2018-09-13T07:59:36.527Z,100531.60
2018-09-13T08:04:39.999Z,100524.48
2018-09-13T08:09:43.436Z,100534.76
2018-09-13T08:14:46.864Z,100524.44
2018-09-13T08:19:50.286Z,100527.66
2018-09-13T08:24:53.724Z,100511.59
2018-09-13T08:29:57.292Z,100513.84
2018-09-13T08:35:00.787Z,100521.34
2018-09-13T08:40:04.499Z,100544.17
2018-09-13T08:45:07.952Z,100543.77
2018-09-13T08:50:11.398Z,100538.02
2018-09-13T08:55:14.863Z,100532.48
2018-09-13T09:00:18.300Z,100529.06
2018-09-13T09:05:21.760Z,100530.54
2018-09-13T09:10:25.239Z,100521.25
2018-09-13T09:15:28.671Z,100532.58
2018-09-13T09:20:32.140Z,100530.41
2018-09-13T09:25:35.627Z,100540.36
2018-09-13T09:30:39.068Z,100541.22
2018-09-13T09:35:42.530Z,100537.70
2018-09-13T09:40:45.981Z,100538.06
2018-09-13T09:45:49.438Z,100546.78
2018-09-13T09:50:52.874Z,100544.12
2018-09-13T09:55:56.335Z,100529.02
2018-09-13T10:01:05.089Z,100536.63
2018-09-13T10:06:08.998Z,100534.30
2018-09-13T10:11:12.460Z,100541.83
2018-09-13T10:16:21.267Z,100535.66
2018-09-13T10:21:30.012Z,100537.00
2018-09-13T10:26:38.612Z,100537.28
2018-09-13T10:31:47.199Z,100517.39
2018-09-13T10:36:55.876Z,100507.56
2018-09-13T10:42:04.780Z,100495.66
2018-09-13T10:47:13.477Z,100510.80
2018-09-13T10:52:20.945Z,100504.87
2018-09-13T10:57:29.627Z,100512.27
2018-09-13T11:02:33.082Z,100501.70
2018-09-13T11:07:36.551Z,100511.66
2018-09-13T11:12:47.996Z,100508.09
2018-09-13T11:17:51.452Z,100509.31
2018-09-13T11:22:55.606Z,100506.62
2018-09-13T11:27:59.067Z,100507.36
2018-09-13T11:33:02.547Z,100502.08
2018-09-13T11:38:06.133Z,100515.95
2018-09-13T11:43:09.624Z,100517.21
2018-09-13T11:48:13.147Z,100512.55
2018-09-13T11:53:16.609Z,100512.05
2018-09-13T11:58:20.044Z,100486.51
2018-09-13T12:03:23.588Z,100497.69
2018-09-13T12:08:27.068Z,100500.51
2018-09-13T12:13:30.525Z,100506.16
2018-09-13T12:18:34.025Z,100501.52
2018-09-13T12:23:37.480Z,100495.63
2018-09-13T12:28:40.938Z,100495.50
2018-09-13T12:33:44.444Z,100481.01
2018-09-13T12:38:47.856Z,100479.30
2018-09-13T12:43:51.294Z,100480.52
2018-09-13T12:48:54.777Z,100460.74
2018-09-13T12:53:58.234Z,100463.94
2018-09-13T12:59:01.719Z,100478.67
2018-09-13T13:04:05.164Z,100491.39
2018-09-13T13:09:09.820Z,100493.23
2018-09-13T13:14:13.250Z,100482.32
2018-09-13T13:19:16.750Z,100470.02
2018-09-13T13:24:20.249Z,100474.69
2018-09-13T13:29:23.707Z,100472.72
2018-09-13T13:34:27.173Z,100465.13
2018-09-13T13:39:30.763Z,100463.83
2018-09-13T13:44:34.448Z,100465.25
2018-09-13T13:49:37.897Z,100464.88
2018-09-13T13:54:41.338Z,100473.11
2018-09-13T13:59:44.827Z,100482.20
2018-09-13T14:04:48.279Z,100479.01
2018-09-13T14:09:51.857Z,100469.42
2018-09-13T14:14:55.251Z,100492.52
2018-09-13T14:25:29.674Z,100479.59
2018-09-13T14:30:33.129Z,100463.38
2018-09-13T14:35:36.674Z,100460.80
2018-09-13T14:40:40.089Z,100477.87
2018-09-13T14:45:43.547Z,100478.23
2018-09-13T14:50:47.021Z,100462.52
2018-09-13T14:55:50.527Z,100476.52
2018-09-13T15:00:54.016Z,100468.54
2018-09-13T15:05:57.464Z,100456.63
2018-09-13T15:11:00.911Z,100455.80
2018-09-13T15:16:04.375Z,100448.11
2018-09-13T15:21:07.817Z,100428.55
2018-09-13T15:26:11.247Z,100428.30
2018-09-13T15:31:14.723Z,100440.61
2018-09-13T15:36:18.179Z,100437.73
2018-09-13T15:41:21.654Z,100443.34
2018-09-13T15:46:25.122Z,100447.94
2018-09-13T15:51:28.616Z,100446.61
2018-09-13T15:56:32.095Z,100446.66
2018-09-13T16:01:35.555Z,100452.46
2018-09-13T16:06:39.008Z,100445.36
2018-09-13T16:11:42.451Z,100449.81
2018-09-13T16:16:45.943Z,100450.73
2018-09-13T16:21:49.408Z,100446.09
2018-09-13T16:26:52.850Z,100441.20
2018-09-13T17:45:07.316Z,100472.88
2018-09-13T17:50:10.865Z,100473.73
2018-09-13T17:55:14.337Z,100473.31
2018-09-13T18:00:18.547Z,100464.89
2018-09-13T18:05:22.106Z,100466.00
2018-09-13T18:10:25.599Z,100468.27
2018-09-13T18:15:29.224Z,100469.22
2018-09-13T18:20:32.745Z,100477.27
2018-09-13T19:16:15.607Z,100497.66
2018-09-13T19:21:19.076Z,100498.52
2018-09-13T19:26:22.533Z,100495.69
2018-09-13T19:31:25.982Z,100489.93
2018-09-13T19:36:29.408Z,100485.88
2018-09-13T19:41:32.855Z,100496.78
2018-09-13T19:46:36.334Z,100494.50
2018-09-13T19:51:39.811Z,100504.33
2018-09-13T19:56:43.279Z,100509.72
2018-09-13T20:01:53.449Z,100520.38
2018-09-13T20:06:56.905Z,100519.03
2018-09-13T20:45:37.450Z,100526.06
2018-09-13T20:50:41.301Z,100526.09
2018-09-13T20:55:45.159Z,100525.98
2018-09-13T21:00:48.776Z,100535.17
2018-09-13T21:11:30.439Z,100536.41
2018-09-13T21:16:34.618Z,100532.35
2018-09-13T21:21:38.256Z,100527.41
2018-09-13T21:26:42.275Z,100531.84
2018-09-13T21:31:45.900Z,100534.30
2018-09-13T21:36:49.372Z,100532.83
2018-09-13T21:41:52.843Z,100535.64
2018-09-13T21:46:56.418Z,100537.73
2018-09-13T21:57:27.360Z,100541.44
2018-09-13T22:02:31.111Z,100541.08
2018-09-13T22:07:34.760Z,100546.63
2018-09-13T22:12:38.212Z,100553.17
2018-09-13T22:17:41.716Z,100544.41
2018-09-13T22:22:45.244Z,100545.41
2018-09-13T22:27:48.672Z,100545.50
2018-09-13T22:32:52.178Z,100549.55
2018-09-13T22:37:56.298Z,100550.91
2018-09-13T22:43:00.291Z,100541.94
2018-09-13T22:48:04.464Z,100543.44
2018-09-13T22:53:08.603Z,100553.02
2018-09-13T22:58:12.698Z,100557.57
2018-09-13T23:03:16.203Z,100558.30
2018-09-13T23:08:19.639Z,100559.30
2018-09-13T23:13:23.232Z,100556.71
2018-09-13T23:18:26.678Z,100554.96
2018-09-13T23:23:30.143Z,100551.03
2018-09-13T23:28:33.592Z,100554.09
2018-09-13T23:33:37.084Z,100552.16
2018-09-13T23:38:40.546Z,100553.23
2018-09-13T23:43:44.005Z,100553.61
2018-09-13T23:48:47.453Z,100554.59
2018-09-13T23:53:51.028Z,100560.86
2018-09-13T23:58:54.493Z,100557.57
